sensor_id;sensor_type;location;lat;lon;timestamp;P1;durP1;ratioP1;P2;durP2;ratioP2
10134;SDS011;5107;48.850;8.924;2022-10-31T00:01:20;4.00;;;2.90;;
10134;SDS011;5107;48.850;8.924;2022-10-31T00:03:49;5.10;;;3.17;;
10134;SDS011;5107;48.850;8.924;2022-10-31T00:06:16;5.07;;;3.43;;
10134;SDS011;5107;48.850;8.924;2022-10-31T00:08:44;3.90;;;2.97;;
10134;SDS011;5107;48.850;8.924;2022-10-31T00:11:11;4.13;;;2.93;;
10134;SDS011;5107;48.850;8.924;2022-10-31T00:13:38;5.37;;;2.87;;
10134;SDS011;5107;48.850;8.924;2022-10-31T00:16:12;5.77;;;3.10;;
10134;SDS011;5107;48.850;8.924;2022-10-31T00:18:42;4.20;;;2.80;;
10134;SDS011;5107;48.850;8.924;2022-10-31T00:21:09;4.90;;;3.27;;
10134;SDS011;5107;48.850;8.924;2022-10-31T00:23:36;3.87;;;3.17;;
10134;SDS011;5107;48.850;8.924;2022-10-31T00:26:04;4.90;;;3.00;;
10134;SDS011;5107;48.850;8.924;2022-10-31T00:28:32;4.07;;;3.27;;
10134;SDS011;5107;48.850;8.924;2022-10-31T00:30:59;5.47;;;3.40;;
10134;SDS011;5107;48.850;8.924;2022-10-31T00:33:27;5.93;;;3.27;;
10134;SDS011;5107;48.850;8.924;2022-10-31T00:35:56;4.47;;;2.90;;
10134;SDS011;5107;48.850;8.924;2022-10-31T00:38:23;4.87;;;3.10;;
10134;SDS011;5107;48.850;8.924;2022-10-31T00:40:50;7.03;;;3.50;;
10134;SDS011;5107;48.850;8.924;2022-10-31T00:43:17;6.30;;;3.57;;
10134;SDS011;5107;48.850;8.924;2022-10-31T00:45:45;8.37;;;3.67;;
10134;SDS011;5107;48.850;8.924;2022-10-31T00:48:12;9.33;;;3.50;;
10134;SDS011;5107;48.850;8.924;2022-10-31T00:50:39;5.33;;;3.00;;
10134;SDS011;5107;48.850;8.924;2022-10-31T00:53:08;5.07;;;3.43;;
10134;SDS011;5107;48.850;8.924;2022-10-31T00:55:35;4.33;;;2.90;;
10134;SDS011;5107;48.850;8.924;2022-10-31T00:58:02;8.10;;;2.97;;
10134;SDS011;5107;48.850;8.924;2022-10-31T01:00:30;5.60;;;2.77;;
10134;SDS011;5107;48.850;8.924;2022-10-31T01:02:57;3.40;;;3.00;;
10134;SDS011;5107;48.850;8.924;2022-10-31T01:05:24;6.00;;;3.27;;
10134;SDS011;5107;48.850;8.924;2022-10-31T01:07:51;4.77;;;2.77;;
10134;SDS011;5107;48.850;8.924;2022-10-31T01:10:19;4.63;;;2.63;;
10134;SDS011;5107;48.850;8.924;2022-10-31T01:12:47;4.50;;;2.93;;
10134;SDS011;5107;48.850;8.924;2022-10-31T01:15:16;3.73;;;3.07;;
10134;SDS011;5107;48.850;8.924;2022-10-31T01:17:45;6.80;;;2.87;;
10134;SDS011;5107;48.850;8.924;2022-10-31T01:20:13;4.60;;;3.00;;
10134;SDS011;5107;48.850;8.924;2022-10-31T01:22:42;13.67;;;8.20;;
10134;SDS011;5107;48.850;8.924;2022-10-31T01:25:09;9.27;;;4.90;;
10134;SDS011;5107;48.850;8.924;2022-10-31T01:27:38;8.93;;;3.00;;
10134;SDS011;5107;48.850;8.924;2022-10-31T01:30:06;6.07;;;3.47;;
10134;SDS011;5107;48.850;8.924;2022-10-31T01:32:34;8.20;;;2.93;;
10134;SDS011;5107;48.850;8.924;2022-10-31T01:35:01;4.77;;;3.20;;
10134;SDS011;5107;48.850;8.924;2022-10-31T01:37:30;5.33;;;3.27;;
10134;SDS011;5107;48.850;8.924;2022-10-31T01:39:57;6.27;;;3.50;;
10134;SDS011;5107;48.850;8.924;2022-10-31T01:42:24;5.93;;;3.37;;
10134;SDS011;5107;48.850;8.924;2022-10-31T01:44:55;6.37;;;3.33;;
10134;SDS011;5107;48.850;8.924;2022-10-31T01:47:39;6.57;;;3.33;;
10134;SDS011;5107;48.850;8.924;2022-10-31T01:50:13;4.03;;;2.70;;
10134;SDS011;5107;48.850;8.924;2022-10-31T01:52:51;6.73;;;3.10;;
10134;SDS011;5107;48.850;8.924;2022-10-31T01:55:20;4.77;;;2.73;;
10134;SDS011;5107;48.850;8.924;2022-10-31T01:57:52;4.33;;;2.60;;
10134;SDS011;5107;48.850;8.924;2022-10-31T02:00:26;4.30;;;2.83;;
10134;SDS011;5107;48.850;8.924;2022-10-31T02:02:53;5.00;;;3.20;;
10134;SDS011;5107;48.850;8.924;2022-10-31T02:05:21;7.67;;;3.57;;
10134;SDS011;5107;48.850;8.924;2022-10-31T02:07:54;3.60;;;2.77;;
10134;SDS011;5107;48.850;8.924;2022-10-31T02:10:27;4.90;;;2.63;;
10134;SDS011;5107;48.850;8.924;2022-10-31T02:12:58;4.73;;;3.10;;
10134;SDS011;5107;48.850;8.924;2022-10-31T02:15:30;7.70;;;3.03;;
10134;SDS011;5107;48.850;8.924;2022-10-31T02:17:58;4.83;;;2.83;;
10134;SDS011;5107;48.850;8.924;2022-10-31T02:20:25;5.67;;;3.13;;
10134;SDS011;5107;48.850;8.924;2022-10-31T02:23:07;3.73;;;3.00;;
10134;SDS011;5107;48.850;8.924;2022-10-31T02:26:13;6.30;;;3.57;;
10134;SDS011;5107;48.850;8.924;2022-10-31T02:29:21;3.33;;;2.60;;
10134;SDS011;5107;48.850;8.924;2022-10-31T02:32:20;3.00;;;2.70;;
10134;SDS011;5107;48.850;8.924;2022-10-31T02:34:56;4.73;;;2.83;;
10134;SDS011;5107;48.850;8.924;2022-10-31T02:37:32;6.17;;;3.30;;
10134;SDS011;5107;48.850;8.924;2022-10-31T02:40:05;6.03;;;2.80;;
10134;SDS011;5107;48.850;8.924;2022-10-31T02:43:19;3.60;;;2.70;;
10134;SDS011;5107;48.850;8.924;2022-10-31T02:45:54;6.20;;;3.10;;
10134;SDS011;5107;48.850;8.924;2022-10-31T02:48:33;5.30;;;3.10;;
10134;SDS011;5107;48.850;8.924;2022-10-31T02:51:05;5.33;;;2.90;;
10134;SDS011;5107;48.850;8.924;2022-10-31T02:53:35;3.50;;;3.00;;
10134;SDS011;5107;48.850;8.924;2022-10-31T02:56:06;4.70;;;2.80;;
10134;SDS011;5107;48.850;8.924;2022-10-31T02:58:38;4.60;;;3.27;;
10134;SDS011;5107;48.850;8.924;2022-10-31T03:01:25;6.23;;;2.83;;
10134;SDS011;5107;48.850;8.924;2022-10-31T03:04:18;3.57;;;2.77;;
10134;SDS011;5107;48.850;8.924;2022-10-31T03:07:15;7.73;;;3.27;;
10134;SDS011;5107;48.850;8.924;2022-10-31T03:09:53;4.07;;;2.90;;
10134;SDS011;5107;48.850;8.924;2022-10-31T03:12:33;5.47;;;2.93;;
10134;SDS011;5107;48.850;8.924;2022-10-31T03:15:09;3.07;;;2.73;;
10134;SDS011;5107;48.850;8.924;2022-10-31T03:17:46;4.60;;;2.80;;
10134;SDS011;5107;48.850;8.924;2022-10-31T03:20:26;3.97;;;3.07;;
10134;SDS011;5107;48.850;8.924;2022-10-31T03:22:59;4.03;;;2.80;;
10134;SDS011;5107;48.850;8.924;2022-10-31T03:25:30;3.73;;;2.60;;
10134;SDS011;5107;48.850;8.924;2022-10-31T03:28:00;4.63;;;2.83;;
10134;SDS011;5107;48.850;8.924;2022-10-31T03:30:31;4.87;;;2.57;;
10134;SDS011;5107;48.850;8.924;2022-10-31T03:33:03;4.37;;;2.70;;
10134;SDS011;5107;48.850;8.924;2022-10-31T03:35:39;4.93;;;2.77;;
10134;SDS011;5107;48.850;8.924;2022-10-31T03:38:11;3.20;;;2.60;;
10134;SDS011;5107;48.850;8.924;2022-10-31T03:40:40;4.50;;;2.83;;
10134;SDS011;5107;48.850;8.924;2022-10-31T03:43:12;5.10;;;3.10;;
10134;SDS011;5107;48.850;8.924;2022-10-31T03:45:44;5.43;;;2.77;;
10134;SDS011;5107;48.850;8.924;2022-10-31T03:48:13;3.50;;;2.73;;
10134;SDS011;5107;48.850;8.924;2022-10-31T03:50:45;4.30;;;2.70;;
10134;SDS011;5107;48.850;8.924;2022-10-31T03:53:20;5.10;;;3.10;;
10134;SDS011;5107;48.850;8.924;2022-10-31T03:55:54;6.27;;;3.17;;
10134;SDS011;5107;48.850;8.924;2022-10-31T03:58:27;4.00;;;2.80;;
10134;SDS011;5107;48.850;8.924;2022-10-31T04:01:04;4.43;;;2.87;;
10134;SDS011;5107;48.850;8.924;2022-10-31T04:03:37;3.60;;;2.67;;
10134;SDS011;5107;48.850;8.924;2022-10-31T04:06:08;4.60;;;3.00;;
10134;SDS011;5107;48.850;8.924;2022-10-31T04:08:42;4.17;;;3.07;;
10134;SDS011;5107;48.850;8.924;2022-10-31T04:11:17;6.20;;;3.20;;
10134;SDS011;5107;48.850;8.924;2022-10-31T04:14:10;3.53;;;2.60;;
10134;SDS011;5107;48.850;8.924;2022-10-31T04:16:38;2.93;;;2.60;;
10134;SDS011;5107;48.850;8.924;2022-10-31T04:19:09;4.40;;;3.20;;
10134;SDS011;5107;48.850;8.924;2022-10-31T04:21:38;4.27;;;3.00;;
10134;SDS011;5107;48.850;8.924;2022-10-31T04:24:09;4.00;;;3.00;;
10134;SDS011;5107;48.850;8.924;2022-10-31T04:26:37;3.50;;;2.80;;
10134;SDS011;5107;48.850;8.924;2022-10-31T04:29:04;4.83;;;3.30;;
10134;SDS011;5107;48.850;8.924;2022-10-31T04:31:31;6.00;;;3.00;;
10134;SDS011;5107;48.850;8.924;2022-10-31T04:33:58;3.73;;;2.80;;
10134;SDS011;5107;48.850;8.924;2022-10-31T04:36:25;6.53;;;2.87;;
10134;SDS011;5107;48.850;8.924;2022-10-31T04:38:53;4.03;;;2.90;;
10134;SDS011;5107;48.850;8.924;2022-10-31T04:41:33;4.93;;;3.27;;
10134;SDS011;5107;48.850;8.924;2022-10-31T04:44:03;7.07;;;2.93;;
10134;SDS011;5107;48.850;8.924;2022-10-31T04:46:31;4.47;;;2.87;;
10134;SDS011;5107;48.850;8.924;2022-10-31T04:48:58;5.70;;;2.57;;
10134;SDS011;5107;48.850;8.924;2022-10-31T04:51:25;3.73;;;2.77;;
10134;SDS011;5107;48.850;8.924;2022-10-31T04:53:57;4.03;;;2.40;;
10134;SDS011;5107;48.850;8.924;2022-10-31T04:56:54;4.57;;;2.83;;
10134;SDS011;5107;48.850;8.924;2022-10-31T04:59:22;5.07;;;3.00;;
10134;SDS011;5107;48.850;8.924;2022-10-31T05:01:51;7.83;;;3.13;;
10134;SDS011;5107;48.850;8.924;2022-10-31T05:04:40;4.23;;;3.30;;
10134;SDS011;5107;48.850;8.924;2022-10-31T05:07:07;6.87;;;3.07;;
10134;SDS011;5107;48.850;8.924;2022-10-31T05:09:39;4.93;;;2.93;;
10134;SDS011;5107;48.850;8.924;2022-10-31T05:12:06;4.53;;;2.80;;
10134;SDS011;5107;48.850;8.924;2022-10-31T05:14:51;4.27;;;2.73;;
10134;SDS011;5107;48.850;8.924;2022-10-31T05:17:44;5.27;;;2.77;;
10134;SDS011;5107;48.850;8.924;2022-10-31T05:20:40;7.80;;;3.20;;
10134;SDS011;5107;48.850;8.924;2022-10-31T05:23:26;5.03;;;3.07;;
10134;SDS011;5107;48.850;8.924;2022-10-31T05:25:54;5.13;;;3.13;;
10134;SDS011;5107;48.850;8.924;2022-10-31T05:28:21;6.03;;;2.80;;
10134;SDS011;5107;48.850;8.924;2022-10-31T05:30:48;5.60;;;3.40;;
10134;SDS011;5107;48.850;8.924;2022-10-31T05:33:16;4.80;;;3.03;;
10134;SDS011;5107;48.850;8.924;2022-10-31T05:36:01;3.50;;;2.47;;
10134;SDS011;5107;48.850;8.924;2022-10-31T05:38:40;5.50;;;2.93;;
10134;SDS011;5107;48.850;8.924;2022-10-31T05:41:20;6.23;;;3.30;;
10134;SDS011;5107;48.850;8.924;2022-10-31T05:43:47;4.10;;;3.03;;
10134;SDS011;5107;48.850;8.924;2022-10-31T05:46:17;4.07;;;2.83;;
10134;SDS011;5107;48.850;8.924;2022-10-31T05:49:04;5.70;;;3.30;;
10134;SDS011;5107;48.850;8.924;2022-10-31T05:52:06;4.23;;;2.60;;
10134;SDS011;5107;48.850;8.924;2022-10-31T05:54:39;5.47;;;3.07;;
10134;SDS011;5107;48.850;8.924;2022-10-31T05:57:08;4.57;;;3.00;;
10134;SDS011;5107;48.850;8.924;2022-10-31T05:59:36;6.87;;;3.00;;
10134;SDS011;5107;48.850;8.924;2022-10-31T06:02:03;6.57;;;3.40;;
10134;SDS011;5107;48.850;8.924;2022-10-31T06:04:48;5.07;;;2.97;;
10134;SDS011;5107;48.850;8.924;2022-10-31T06:07:16;7.30;;;3.17;;
10134;SDS011;5107;48.850;8.924;2022-10-31T06:09:43;3.50;;;2.70;;
10134;SDS011;5107;48.850;8.924;2022-10-31T06:12:11;5.57;;;3.13;;
10134;SDS011;5107;48.850;8.924;2022-10-31T06:15:11;4.20;;;3.13;;
10134;SDS011;5107;48.850;8.924;2022-10-31T06:17:41;4.53;;;2.90;;
10134;SDS011;5107;48.850;8.924;2022-10-31T06:20:08;5.03;;;2.80;;
10134;SDS011;5107;48.850;8.924;2022-10-31T06:22:48;5.47;;;3.20;;
10134;SDS011;5107;48.850;8.924;2022-10-31T06:25:16;4.80;;;3.63;;
10134;SDS011;5107;48.850;8.924;2022-10-31T06:27:49;6.37;;;3.47;;
10134;SDS011;5107;48.850;8.924;2022-10-31T06:30:19;5.30;;;3.10;;
10134;SDS011;5107;48.850;8.924;2022-10-31T06:32:46;4.97;;;3.37;;
10134;SDS011;5107;48.850;8.924;2022-10-31T06:35:14;4.60;;;2.87;;
10134;SDS011;5107;48.850;8.924;2022-10-31T06:37:42;2.83;;;2.47;;
10134;SDS011;5107;48.850;8.924;2022-10-31T06:40:25;5.23;;;3.10;;
10134;SDS011;5107;48.850;8.924;2022-10-31T06:43:18;4.00;;;3.13;;
10134;SDS011;5107;48.850;8.924;2022-10-31T06:45:46;5.70;;;3.13;;
10134;SDS011;5107;48.850;8.924;2022-10-31T06:48:21;4.73;;;3.17;;
10134;SDS011;5107;48.850;8.924;2022-10-31T06:51:15;5.00;;;3.30;;
10134;SDS011;5107;48.850;8.924;2022-10-31T06:53:42;4.67;;;2.90;;
10134;SDS011;5107;48.850;8.924;2022-10-31T06:56:11;3.80;;;2.90;;
10134;SDS011;5107;48.850;8.924;2022-10-31T06:58:45;4.43;;;3.03;;
10134;SDS011;5107;48.850;8.924;2022-10-31T07:01:12;4.70;;;3.10;;
10134;SDS011;5107;48.850;8.924;2022-10-31T07:03:40;5.57;;;2.83;;
10134;SDS011;5107;48.850;8.924;2022-10-31T07:06:07;5.77;;;3.13;;
10134;SDS011;5107;48.850;8.924;2022-10-31T07:08:34;4.50;;;3.33;;
10134;SDS011;5107;48.850;8.924;2022-10-31T07:11:01;6.23;;;3.50;;
10134;SDS011;5107;48.850;8.924;2022-10-31T07:13:29;5.30;;;3.23;;
10134;SDS011;5107;48.850;8.924;2022-10-31T07:16:04;8.33;;;3.27;;
10134;SDS011;5107;48.850;8.924;2022-10-31T07:18:34;5.70;;;3.60;;
10134;SDS011;5107;48.850;8.924;2022-10-31T07:21:02;5.67;;;3.20;;
10134;SDS011;5107;48.850;8.924;2022-10-31T07:23:30;7.23;;;4.57;;
10134;SDS011;5107;48.850;8.924;2022-10-31T07:26:16;8.33;;;4.40;;
10134;SDS011;5107;48.850;8.924;2022-10-31T07:28:45;10.47;;;4.83;;
10134;SDS011;5107;48.850;8.924;2022-10-31T07:31:15;10.17;;;4.10;;
10134;SDS011;5107;48.850;8.924;2022-10-31T07:33:42;8.33;;;3.90;;
10134;SDS011;5107;48.850;8.924;2022-10-31T07:36:38;6.47;;;3.33;;
10134;SDS011;5107;48.850;8.924;2022-10-31T07:39:05;5.07;;;3.57;;
10134;SDS011;5107;48.850;8.924;2022-10-31T07:41:34;6.37;;;3.37;;
10134;SDS011;5107;48.850;8.924;2022-10-31T07:44:01;6.13;;;3.23;;
10134;SDS011;5107;48.850;8.924;2022-10-31T07:46:29;5.67;;;3.30;;
10134;SDS011;5107;48.850;8.924;2022-10-31T07:49:15;6.63;;;3.20;;
10134;SDS011;5107;48.850;8.924;2022-10-31T07:52:11;10.37;;;3.27;;
10134;SDS011;5107;48.850;8.924;2022-10-31T07:55:02;4.60;;;3.30;;
10134;SDS011;5107;48.850;8.924;2022-10-31T07:57:30;5.07;;;3.33;;
10134;SDS011;5107;48.850;8.924;2022-10-31T07:59:57;7.53;;;3.27;;
10134;SDS011;5107;48.850;8.924;2022-10-31T08:02:26;9.07;;;3.43;;
10134;SDS011;5107;48.850;8.924;2022-10-31T08:05:13;5.53;;;3.30;;
10134;SDS011;5107;48.850;8.924;2022-10-31T08:07:58;5.30;;;3.47;;
10134;SDS011;5107;48.850;8.924;2022-10-31T08:10:26;4.27;;;3.17;;
10134;SDS011;5107;48.850;8.924;2022-10-31T08:12:55;5.60;;;3.57;;
10134;SDS011;5107;48.850;8.924;2022-10-31T08:15:23;8.70;;;3.53;;
10134;SDS011;5107;48.850;8.924;2022-10-31T08:17:52;6.70;;;3.57;;
10134;SDS011;5107;48.850;8.924;2022-10-31T08:20:20;6.10;;;3.30;;
10134;SDS011;5107;48.850;8.924;2022-10-31T08:22:55;6.53;;;3.47;;
10134;SDS011;5107;48.850;8.924;2022-10-31T08:25:23;6.03;;;3.80;;
10134;SDS011;5107;48.850;8.924;2022-10-31T08:27:51;5.57;;;3.23;;
10134;SDS011;5107;48.850;8.924;2022-10-31T08:30:21;3.53;;;3.17;;
10134;SDS011;5107;48.850;8.924;2022-10-31T08:33:12;7.73;;;3.80;;
10134;SDS011;5107;48.850;8.924;2022-10-31T08:36:11;4.50;;;3.50;;
10134;SDS011;5107;48.850;8.924;2022-10-31T08:38:56;5.67;;;3.27;;
10134;SDS011;5107;48.850;8.924;2022-10-31T08:41:23;5.07;;;3.37;;
10134;SDS011;5107;48.850;8.924;2022-10-31T08:43:51;8.33;;;3.97;;
10134;SDS011;5107;48.850;8.924;2022-10-31T08:46:19;5.80;;;3.27;;
10134;SDS011;5107;48.850;8.924;2022-10-31T08:48:48;6.07;;;3.43;;
10134;SDS011;5107;48.850;8.924;2022-10-31T08:51:16;6.90;;;3.17;;
10134;SDS011;5107;48.850;8.924;2022-10-31T08:53:44;5.80;;;3.20;;
10134;SDS011;5107;48.850;8.924;2022-10-31T08:56:29;5.63;;;3.43;;
10134;SDS011;5107;48.850;8.924;2022-10-31T08:58:58;7.43;;;3.20;;
10134;SDS011;5107;48.850;8.924;2022-10-31T09:02:01;6.13;;;3.30;;
10134;SDS011;5107;48.850;8.924;2022-10-31T09:04:30;5.63;;;3.27;;
10134;SDS011;5107;48.850;8.924;2022-10-31T09:06:57;5.43;;;3.30;;
10134;SDS011;5107;48.850;8.924;2022-10-31T09:09:24;4.50;;;3.63;;
10134;SDS011;5107;48.850;8.924;2022-10-31T09:11:51;6.07;;;3.47;;
10134;SDS011;5107;48.850;8.924;2022-10-31T09:14:39;6.10;;;3.67;;
10134;SDS011;5107;48.850;8.924;2022-10-31T09:17:45;5.80;;;3.77;;
10134;SDS011;5107;48.850;8.924;2022-10-31T09:20:21;5.20;;;3.40;;
10134;SDS011;5107;48.850;8.924;2022-10-31T09:22:54;5.87;;;3.60;;
10134;SDS011;5107;48.850;8.924;2022-10-31T09:25:23;6.03;;;3.53;;
10134;SDS011;5107;48.850;8.924;2022-10-31T09:28:11;4.33;;;3.50;;
10134;SDS011;5107;48.850;8.924;2022-10-31T09:30:42;3.73;;;3.20;;
10134;SDS011;5107;48.850;8.924;2022-10-31T09:33:17;7.70;;;3.70;;
10134;SDS011;5107;48.850;8.924;2022-10-31T09:35:55;8.63;;;4.57;;
10134;SDS011;5107;48.850;8.924;2022-10-31T09:38:24;9.07;;;5.20;;
10134;SDS011;5107;48.850;8.924;2022-10-31T09:40:52;4.80;;;4.27;;
10134;SDS011;5107;48.850;8.924;2022-10-31T09:43:33;7.70;;;3.97;;
10134;SDS011;5107;48.850;8.924;2022-10-31T09:46:13;5.57;;;3.87;;
10134;SDS011;5107;48.850;8.924;2022-10-31T09:48:50;4.47;;;3.40;;
10134;SDS011;5107;48.850;8.924;2022-10-31T09:51:49;9.80;;;3.53;;
10134;SDS011;5107;48.850;8.924;2022-10-31T09:54:29;4.87;;;3.17;;
10134;SDS011;5107;48.850;8.924;2022-10-31T09:57:04;6.07;;;3.10;;
10134;SDS011;5107;48.850;8.924;2022-10-31T09:59:37;4.40;;;3.20;;
10134;SDS011;5107;48.850;8.924;2022-10-31T10:02:10;4.07;;;2.90;;
10134;SDS011;5107;48.850;8.924;2022-10-31T10:04:47;4.70;;;3.03;;
10134;SDS011;5107;48.850;8.924;2022-10-31T10:07:24;5.77;;;3.30;;
10134;SDS011;5107;48.850;8.924;2022-10-31T10:10:22;5.67;;;3.60;;
10134;SDS011;5107;48.850;8.924;2022-10-31T10:13:36;4.13;;;3.10;;
10134;SDS011;5107;48.850;8.924;2022-10-31T10:16:29;5.70;;;3.30;;
10134;SDS011;5107;48.850;8.924;2022-10-31T10:19:12;4.30;;;3.17;;
10134;SDS011;5107;48.850;8.924;2022-10-31T10:21:57;3.90;;;3.20;;
10134;SDS011;5107;48.850;8.924;2022-10-31T10:24:40;5.35;;;3.65;;
10134;SDS011;5107;48.850;8.924;2022-10-31T10:27:28;6.73;;;3.40;;
10134;SDS011;5107;48.850;8.924;2022-10-31T10:30:12;7.57;;;3.63;;
10134;SDS011;5107;48.850;8.924;2022-10-31T10:32:42;5.10;;;3.03;;
10134;SDS011;5107;48.850;8.924;2022-10-31T10:35:17;6.27;;;3.27;;
10134;SDS011;5107;48.850;8.924;2022-10-31T10:37:52;5.63;;;2.77;;
10134;SDS011;5107;48.850;8.924;2022-10-31T10:40:26;5.17;;;3.17;;
10134;SDS011;5107;48.850;8.924;2022-10-31T10:42:56;4.13;;;3.20;;
10134;SDS011;5107;48.850;8.924;2022-10-31T10:46:03;8.77;;;3.60;;
10134;SDS011;5107;48.850;8.924;2022-10-31T10:49:06;9.70;;;3.55;;
10134;SDS011;5107;48.850;8.924;2022-10-31T10:51:43;7.47;;;3.58;;
10134;SDS011;5107;48.850;8.924;2022-10-31T11:00:10;5.72;;;3.17;;
10134;SDS011;5107;48.850;8.924;2022-10-31T11:02:45;11.02;;;3.58;;
10134;SDS011;5107;48.850;8.924;2022-10-31T11:05:13;6.07;;;4.13;;
10134;SDS011;5107;48.850;8.924;2022-10-31T11:07:49;5.83;;;3.30;;
10134;SDS011;5107;48.850;8.924;2022-10-31T11:10:16;4.47;;;3.50;;
10134;SDS011;5107;48.850;8.924;2022-10-31T11:13:02;6.93;;;3.63;;
10134;SDS011;5107;48.850;8.924;2022-10-31T11:15:49;6.80;;;4.37;;
10134;SDS011;5107;48.850;8.924;2022-10-31T11:18:23;8.47;;;4.37;;
10134;SDS011;5107;48.850;8.924;2022-10-31T11:20:54;6.57;;;4.00;;
10134;SDS011;5107;48.850;8.924;2022-10-31T11:23:23;7.53;;;3.83;;
10134;SDS011;5107;48.850;8.924;2022-10-31T11:25:54;7.50;;;3.90;;
10134;SDS011;5107;48.850;8.924;2022-10-31T11:28:25;5.53;;;3.77;;
10134;SDS011;5107;48.850;8.924;2022-10-31T11:30:55;7.63;;;4.53;;
10134;SDS011;5107;48.850;8.924;2022-10-31T11:33:26;5.17;;;4.13;;
10134;SDS011;5107;48.850;8.924;2022-10-31T11:35:58;9.97;;;4.33;;
10134;SDS011;5107;48.850;8.924;2022-10-31T11:38:29;6.07;;;4.63;;
10134;SDS011;5107;48.850;8.924;2022-10-31T11:41:04;10.23;;;4.40;;
10134;SDS011;5107;48.850;8.924;2022-10-31T11:43:40;9.07;;;4.97;;
10134;SDS011;5107;48.850;8.924;2022-10-31T11:46:18;7.07;;;4.20;;
10134;SDS011;5107;48.850;8.924;2022-10-31T11:48:59;7.77;;;4.50;;
10134;SDS011;5107;48.850;8.924;2022-10-31T11:51:28;11.07;;;4.60;;
10134;SDS011;5107;48.850;8.924;2022-10-31T11:53:58;8.20;;;4.73;;
10134;SDS011;5107;48.850;8.924;2022-10-31T11:56:27;8.90;;;4.70;;
10134;SDS011;5107;48.850;8.924;2022-10-31T11:59:17;7.53;;;4.10;;
10134;SDS011;5107;48.850;8.924;2022-10-31T12:01:50;8.10;;;4.80;;
10134;SDS011;5107;48.850;8.924;2022-10-31T12:04:19;9.33;;;5.43;;
10134;SDS011;5107;48.850;8.924;2022-10-31T12:06:58;7.33;;;4.83;;
10134;SDS011;5107;48.850;8.924;2022-10-31T12:09:26;8.07;;;5.23;;
10134;SDS011;5107;48.850;8.924;2022-10-31T12:15:05;11.10;;;5.63;;
10134;SDS011;5107;48.850;8.924;2022-10-31T12:17:48;9.87;;;5.60;;
10134;SDS011;5107;48.850;8.924;2022-10-31T12:20:27;9.13;;;5.40;;
10134;SDS011;5107;48.850;8.924;2022-10-31T12:25:55;8.80;;;5.30;;
10134;SDS011;5107;48.850;8.924;2022-10-31T12:28:37;10.50;;;5.93;;
10134;SDS011;5107;48.850;8.924;2022-10-31T12:31:38;8.43;;;5.20;;
10134;SDS011;5107;48.850;8.924;2022-10-31T12:34:27;11.87;;;5.47;;
10134;SDS011;5107;48.850;8.924;2022-10-31T12:37:21;6.60;;;5.23;;
10134;SDS011;5107;48.850;8.924;2022-10-31T12:40:12;7.87;;;5.60;;
10134;SDS011;5107;48.850;8.924;2022-10-31T12:43:06;7.50;;;5.07;;
10134;SDS011;5107;48.850;8.924;2022-10-31T12:45:50;8.97;;;5.40;;
10134;SDS011;5107;48.850;8.924;2022-10-31T12:48:27;7.83;;;5.20;;
10134;SDS011;5107;48.850;8.924;2022-10-31T12:51:20;9.87;;;4.93;;
10134;SDS011;5107;48.850;8.924;2022-10-31T12:53:59;9.17;;;5.00;;
10134;SDS011;5107;48.850;8.924;2022-10-31T12:56:51;8.93;;;5.10;;
10134;SDS011;5107;48.850;8.924;2022-10-31T12:59:27;6.43;;;4.93;;
10134;SDS011;5107;48.850;8.924;2022-10-31T13:02:00;10.80;;;5.70;;
10134;SDS011;5107;48.850;8.924;2022-10-31T13:04:40;7.30;;;5.40;;
10134;SDS011;5107;48.850;8.924;2022-10-31T13:07:15;13.70;;;5.47;;
10134;SDS011;5107;48.850;8.924;2022-10-31T13:09:47;12.20;;;5.50;;
10134;SDS011;5107;48.850;8.924;2022-10-31T13:12:23;9.47;;;5.70;;
10134;SDS011;5107;48.850;8.924;2022-10-31T13:14:53;11.37;;;5.40;;
10134;SDS011;5107;48.850;8.924;2022-10-31T13:17:26;9.87;;;5.57;;
10134;SDS011;5107;48.850;8.924;2022-10-31T13:20:05;8.23;;;5.33;;
10134;SDS011;5107;48.850;8.924;2022-10-31T13:22:48;10.20;;;5.63;;
10134;SDS011;5107;48.850;8.924;2022-10-31T13:25:21;11.17;;;5.80;;
10134;SDS011;5107;48.850;8.924;2022-10-31T13:27:53;11.87;;;6.20;;
10134;SDS011;5107;48.850;8.924;2022-10-31T13:30:25;14.23;;;6.00;;
10134;SDS011;5107;48.850;8.924;2022-10-31T13:32:56;10.27;;;5.67;;
10134;SDS011;5107;48.850;8.924;2022-10-31T13:35:31;10.90;;;5.77;;
10134;SDS011;5107;48.850;8.924;2022-10-31T13:38:13;8.60;;;5.33;;
10134;SDS011;5107;48.850;8.924;2022-10-31T13:40:50;10.90;;;5.43;;
10134;SDS011;5107;48.850;8.924;2022-10-31T13:43:28;9.67;;;5.37;;
10134;SDS011;5107;48.850;8.924;2022-10-31T13:46:22;8.88;;;4.95;;
10134;SDS011;5107;48.850;8.924;2022-10-31T13:48:51;9.60;;;5.20;;
10134;SDS011;5107;48.850;8.924;2022-10-31T13:51:25;8.70;;;5.15;;
10134;SDS011;5107;48.850;8.924;2022-10-31T13:53:59;12.10;;;5.10;;
10134;SDS011;5107;48.850;8.924;2022-10-31T13:56:32;10.27;;;4.13;;
10134;SDS011;5107;48.850;8.924;2022-10-31T13:59:02;9.48;;;5.30;;
10134;SDS011;5107;48.850;8.924;2022-10-31T14:01:48;7.93;;;4.80;;
10134;SDS011;5107;48.850;8.924;2022-10-31T14:04:18;7.10;;;4.50;;
10134;SDS011;5107;48.850;8.924;2022-10-31T14:06:54;10.68;;;4.85;;
10134;SDS011;5107;48.850;8.924;2022-10-31T14:09:29;11.57;;;5.03;;
10134;SDS011;5107;48.850;8.924;2022-10-31T14:12:00;8.33;;;4.63;;
10134;SDS011;5107;48.850;8.924;2022-10-31T14:14:33;8.53;;;5.13;;
10134;SDS011;5107;48.850;8.924;2022-10-31T14:17:16;9.80;;;4.73;;
10134;SDS011;5107;48.850;8.924;2022-10-31T14:26:16;7.80;;;4.63;;
10134;SDS011;5107;48.850;8.924;2022-10-31T14:29:20;8.33;;;4.10;;
10134;SDS011;5107;48.850;8.924;2022-10-31T14:31:54;9.90;;;4.30;;
10134;SDS011;5107;48.850;8.924;2022-10-31T14:34:26;8.57;;;4.70;;
10134;SDS011;5107;48.850;8.924;2022-10-31T14:40:05;9.27;;;4.50;;
10134;SDS011;5107;48.850;8.924;2022-10-31T14:42:53;6.17;;;4.10;;
10134;SDS011;5107;48.850;8.924;2022-10-31T14:45:42;10.67;;;4.73;;
10134;SDS011;5107;48.850;8.924;2022-10-31T14:48:29;7.70;;;4.68;;
10134;SDS011;5107;48.850;8.924;2022-10-31T14:51:17;8.53;;;4.60;;
10134;SDS011;5107;48.850;8.924;2022-10-31T14:53:47;6.93;;;4.63;;
10134;SDS011;5107;48.850;8.924;2022-10-31T14:56:20;12.85;;;5.05;;
10134;SDS011;5107;48.850;8.924;2022-10-31T14:58:51;10.50;;;5.30;;
10134;SDS011;5107;48.850;8.924;2022-10-31T15:01:22;8.68;;;5.25;;
10134;SDS011;5107;48.850;8.924;2022-10-31T15:04:00;11.30;;;5.43;;
10134;SDS011;5107;48.850;8.924;2022-10-31T15:06:37;10.77;;;5.93;;
10134;SDS011;5107;48.850;8.924;2022-10-31T15:09:20;9.07;;;5.20;;
10134;SDS011;5107;48.850;8.924;2022-10-31T15:11:50;7.60;;;5.27;;
10134;SDS011;5107;48.850;8.924;2022-10-31T15:14:21;8.60;;;5.40;;
10134;SDS011;5107;48.850;8.924;2022-10-31T15:16:50;10.93;;;5.93;;
10134;SDS011;5107;48.850;8.924;2022-10-31T15:19:20;13.37;;;6.17;;
10134;SDS011;5107;48.850;8.924;2022-10-31T15:21:52;8.03;;;5.20;;
10134;SDS011;5107;48.850;8.924;2022-10-31T15:24:22;9.23;;;5.50;;
10134;SDS011;5107;48.850;8.924;2022-10-31T15:26:55;10.07;;;5.47;;
10134;SDS011;5107;48.850;8.924;2022-10-31T15:29:22;8.90;;;6.00;;
10134;SDS011;5107;48.850;8.924;2022-10-31T15:31:52;10.77;;;5.47;;
10134;SDS011;5107;48.850;8.924;2022-10-31T15:34:25;9.60;;;5.27;;
10134;SDS011;5107;48.850;8.924;2022-10-31T15:36:59;7.57;;;4.97;;
10134;SDS011;5107;48.850;8.924;2022-10-31T15:39:26;7.63;;;4.70;;
10134;SDS011;5107;48.850;8.924;2022-10-31T15:41:55;9.37;;;5.40;;
10134;SDS011;5107;48.850;8.924;2022-10-31T15:44:25;9.03;;;6.10;;
10134;SDS011;5107;48.850;8.924;2022-10-31T15:46:57;9.80;;;6.50;;
10134;SDS011;5107;48.850;8.924;2022-10-31T15:49:31;9.23;;;5.80;;
10134;SDS011;5107;48.850;8.924;2022-10-31T15:52:04;10.00;;;5.73;;
10134;SDS011;5107;48.850;8.924;2022-10-31T15:54:36;14.30;;;6.43;;
10134;SDS011;5107;48.850;8.924;2022-10-31T15:57:15;12.57;;;6.50;;
10134;SDS011;5107;48.850;8.924;2022-10-31T15:59:44;12.60;;;6.57;;
10134;SDS011;5107;48.850;8.924;2022-10-31T16:02:14;10.90;;;6.17;;
10134;SDS011;5107;48.850;8.924;2022-10-31T16:04:49;12.30;;;6.00;;
10134;SDS011;5107;48.850;8.924;2022-10-31T16:07:19;12.63;;;6.17;;
10134;SDS011;5107;48.850;8.924;2022-10-31T16:09:49;7.17;;;5.70;;